OIFS 
Shahrekord Airport
Shahrekord, Iran 
ICAOIATAStatus
OIFSCQDOperational
LatitudeLongitude
32° 17' 49" N50° 50' 31" E
32.29719950.842201
Local Time (DST+5)UTC (GMT+4)
04-24-2014 06:35 am04-24-2014 02:05
Sunrise-SunsetLocalUTC
Begin Civil Twilight06:00 am01:30
Sunrise06:25 am01:55
Sunset07:43 pm15:13
End Civil Twilight08:09 pm15:39

Current Weather

METARObservedFlight Conditions

OIFS 240100Z 00000KT 9999 FEW040 09/02 Q1019

Thu, Apr 24, 2014 @ 01:00 UTC(Z)

(1 Hour, 5 Minutes ago)

VFR

(Visual Flight Rules)

WindVisibilityCloudsConditions
Calm
10 km or more
  • Few at 4,000' AGL
  • No significant weather
TemperaturesReadingsPrecipitation
Current Temp9°C (48°F)
Dewpoint2°C (36°F)
Humidity62%
Altimeter30.09"Hg
Sea Level Pressure1019mb
Field Elevation6817.59'
None Recorded

Additional weather within a 185.2km radius of OIFS

Location METAR
OIFM

108km E (062°)

35 minutes ago
VFR VFR    MVFR MVFR    IFR IFR    LIFR LIFR    Unknown Unknown

Previous 24 hour Weather Graphs

  Loading...

CheckWX.com is intended as a tool to help pilots better visualize weather data.   It is not intended as a substitute for an official weather briefing obtained from a Flight Service Station.
CheckWX.com does not meet the FAA requirements for an official pre-flight weather briefing.   Therefore, it's important that pilots still call and obtain an official FSS pre-flight weather briefing.